createdAt,value
2018-05-24T00:00:56.924Z,4.70
2018-05-24T00:03:23.176Z,5.00
2018-05-24T00:05:49.445Z,5.60
2018-05-24T00:08:15.700Z,5.63
2018-05-24T00:10:41.952Z,4.80
2018-05-24T00:13:08.218Z,4.83
2018-05-24T00:15:34.505Z,5.00
2018-05-24T00:18:01.561Z,5.40
2018-05-24T00:20:32.690Z,4.20
2018-05-24T00:22:59.679Z,6.43
2018-05-24T00:25:25.945Z,5.13
2018-05-24T00:27:52.251Z,8.77
2018-05-24T00:30:19.260Z,6.67
2018-05-24T00:32:45.544Z,4.50
2018-05-24T00:35:12.540Z,4.87
2018-05-24T00:37:38.837Z,4.07
2018-05-24T00:40:05.855Z,4.33
2018-05-24T00:42:32.121Z,4.67
2018-05-24T00:44:58.387Z,4.63
2018-05-24T00:47:26.403Z,4.60
2018-05-24T00:49:52.759Z,5.23
2018-05-24T00:52:19.020Z,4.50
2018-05-24T00:54:45.288Z,4.50
2018-05-24T00:57:11.592Z,5.17
2018-05-24T00:59:37.862Z,5.17
2018-05-24T01:02:04.887Z,3.97
2018-05-24T01:04:31.133Z,4.33
2018-05-24T01:06:57.393Z,4.50
2018-05-24T01:09:24.413Z,5.37
2018-05-24T01:11:50.700Z,4.73
2018-05-24T01:14:17.793Z,4.13
2018-05-24T01:16:44.015Z,3.70
2018-05-24T01:19:11.005Z,3.73
2018-05-24T01:21:37.299Z,4.27
2018-05-24T01:24:03.557Z,4.70
2018-05-24T01:26:30.557Z,3.63
2018-05-24T01:28:56.796Z,4.30
2018-05-24T01:31:23.056Z,5.50
2018-05-24T01:33:49.328Z,5.30
2018-05-24T01:36:15.584Z,4.00
2018-05-24T01:38:42.643Z,4.10
2018-05-24T01:41:08.962Z,4.50
2018-05-24T01:43:35.216Z,11.37
2018-05-24T01:46:02.231Z,3.90
2018-05-24T01:48:28.495Z,4.30
2018-05-24T01:50:54.769Z,3.67
2018-05-24T01:53:21.791Z,7.10
2018-05-24T01:55:48.035Z,4.10
2018-05-24T01:58:14.316Z,6.87
2018-05-24T02:00:41.320Z,8.10
2018-05-24T02:03:07.619Z,4.63
2018-05-24T02:05:33.851Z,4.10
2018-05-24T02:08:00.850Z,4.00
2018-05-24T02:10:27.136Z,3.63
2018-05-24T02:12:54.268Z,4.40
2018-05-24T02:15:20.523Z,6.97
2018-05-24T02:17:46.763Z,9.13
2018-05-24T02:20:13.041Z,5.67
2018-05-24T02:22:39.655Z,5.20
2018-05-24T02:25:05.985Z,4.90
2018-05-24T02:27:32.263Z,4.37
2018-05-24T02:29:58.527Z,4.43
2018-05-24T02:32:25.540Z,4.00
2018-05-24T02:34:51.821Z,12.53
2018-05-24T02:37:18.816Z,4.97
2018-05-24T02:39:45.080Z,6.63
2018-05-24T02:42:11.356Z,6.17
2018-05-24T02:44:37.663Z,5.80
2018-05-24T02:47:03.915Z,4.80
2018-05-24T02:49:30.148Z,4.70
2018-05-24T02:51:56.388Z,4.50
2018-05-24T02:54:22.640Z,5.70
2018-05-24T02:56:48.935Z,4.70
2018-05-24T02:59:15.193Z,5.23
2018-05-24T03:01:41.475Z,4.87
2018-05-24T03:04:08.491Z,4.30
2018-05-24T03:06:34.745Z,4.90
2018-05-24T03:09:00.992Z,4.63
2018-05-24T03:11:27.280Z,5.20
2018-05-24T03:13:53.581Z,5.73
2018-05-24T03:16:19.848Z,5.10
2018-05-24T03:18:47.220Z,4.50
2018-05-24T03:21:14.230Z,5.70
2018-05-24T03:23:40.520Z,6.37
2018-05-24T03:26:06.769Z,6.60
2018-05-24T03:28:33.057Z,5.70
2018-05-24T03:30:59.327Z,8.10
2018-05-24T03:33:25.625Z,5.00
2018-05-24T03:35:51.893Z,5.80
2018-05-24T03:38:18.177Z,4.87
2018-05-24T03:40:45.168Z,5.73
2018-05-24T03:43:11.441Z,6.63
2018-05-24T03:45:37.695Z,5.67
2018-05-24T03:48:04.709Z,6.07
2018-05-24T03:50:31.007Z,5.77
2018-05-24T03:52:58.011Z,6.80
2018-05-24T03:55:24.315Z,6.00
2018-05-24T03:57:50.640Z,6.63
2018-05-24T04:00:29.325Z,6.27
2018-05-24T04:03:08.394Z,5.80
2018-05-24T04:05:34.749Z,6.23
2018-05-24T04:08:00.908Z,6.30
2018-05-24T04:10:27.956Z,6.90
2018-05-24T04:12:54.196Z,6.50
2018-05-24T04:15:21.300Z,7.37
2018-05-24T04:17:47.572Z,7.43
2018-05-24T04:20:13.852Z,7.53
2018-05-24T04:22:40.084Z,7.90
2018-05-24T04:25:07.104Z,8.70
2018-05-24T04:27:33.319Z,7.63
2018-05-24T04:29:59.600Z,8.47
2018-05-24T04:32:25.881Z,8.40
2018-05-24T04:34:52.151Z,10.40
2018-05-24T04:37:18.404Z,10.50
2018-05-24T04:39:44.660Z,8.53
2018-05-24T04:42:10.933Z,9.53
2018-05-24T04:44:37.260Z,9.30
2018-05-24T04:47:03.544Z,9.70
2018-05-24T04:49:29.863Z,10.40
2018-05-24T04:51:56.852Z,10.50
2018-05-24T04:54:23.876Z,10.33
2018-05-24T04:56:50.880Z,10.97
2018-05-24T04:59:17.153Z,11.60
2018-05-24T05:01:43.481Z,21.60
2018-05-24T05:04:10.493Z,11.97
2018-05-24T05:06:37.486Z,11.40
2018-05-24T05:09:04.640Z,10.70
2018-05-24T05:11:30.890Z,10.90
2018-05-24T05:13:57.143Z,9.70
2018-05-24T05:16:23.401Z,10.80
2018-05-24T05:18:51.231Z,10.97
2018-05-24T05:21:17.514Z,11.10
2018-05-24T05:23:43.795Z,12.37
2018-05-24T05:26:10.889Z,12.50
2018-05-24T05:28:37.231Z,12.87
2018-05-24T05:31:03.527Z,11.30
2018-05-24T05:33:30.552Z,12.70
2018-05-24T05:35:56.829Z,13.47
2018-05-24T05:38:23.136Z,13.83
2018-05-24T05:40:49.406Z,13.47
2018-05-24T05:43:15.679Z,15.13
2018-05-24T05:45:42.296Z,15.47
2018-05-24T05:48:08.695Z,16.63
2018-05-24T05:50:34.970Z,15.50
2018-05-24T05:53:01.228Z,15.70
2018-05-24T05:55:27.493Z,16.17
2018-05-24T05:57:53.872Z,14.40
2018-05-24T06:00:20.437Z,14.40
2018-05-24T06:02:47.137Z,13.03
2018-05-24T06:05:13.403Z,12.63
2018-05-24T06:07:40.404Z,12.73
2018-05-24T06:10:06.669Z,11.90
2018-05-24T06:12:33.664Z,11.43
2018-05-24T06:14:59.919Z,11.53
2018-05-24T06:17:26.224Z,11.03
2018-05-24T06:19:52.553Z,10.57
2018-05-24T06:22:18.927Z,10.90
2018-05-24T06:24:45.192Z,10.23
2018-05-24T06:27:11.461Z,10.97
2018-05-24T06:29:37.725Z,10.47
2018-05-24T06:32:04.749Z,10.60
2018-05-24T06:34:31.023Z,11.00
2018-05-24T06:36:58.046Z,10.83
2018-05-24T06:39:24.300Z,10.20
2018-05-24T06:41:50.551Z,10.97
2018-05-24T06:44:17.570Z,9.67
2018-05-24T06:46:43.892Z,10.00
2018-05-24T06:49:10.588Z,10.70
2018-05-24T06:51:36.847Z,14.20
2018-05-24T06:54:03.875Z,11.70
2018-05-24T06:56:31.212Z,10.57
2018-05-24T06:58:57.468Z,10.27
2018-05-24T07:01:23.768Z,10.73
2018-05-24T07:03:50.041Z,10.60
2018-05-24T07:06:16.345Z,11.30
2018-05-24T07:08:42.612Z,10.37
2018-05-24T07:11:08.917Z,13.30
2018-05-24T07:13:35.183Z,10.20
2018-05-24T07:16:01.498Z,10.30
2018-05-24T07:18:28.536Z,10.77
2018-05-24T07:20:54.827Z,11.80
2018-05-24T07:23:21.088Z,11.53
2018-05-24T07:25:47.457Z,12.77
2018-05-24T07:28:13.728Z,12.27
2018-05-24T07:30:40.763Z,10.77
2018-05-24T07:33:07.019Z,11.33
2018-05-24T07:35:33.288Z,11.13
2018-05-24T07:38:00.735Z,12.37
2018-05-24T07:40:26.980Z,11.07
2018-05-24T07:42:53.272Z,13.13
2018-05-24T07:45:19.527Z,13.00
2018-05-24T07:47:45.807Z,10.80
2018-05-24T07:50:12.363Z,12.23
2018-05-24T07:52:39.382Z,12.20
2018-05-24T07:55:06.113Z,10.83
2018-05-24T07:57:32.384Z,11.10
2018-05-24T07:59:58.656Z,12.80
2018-05-24T08:02:26.524Z,12.13
2018-05-24T08:04:53.900Z,11.73
2018-05-24T08:07:20.912Z,10.53
2018-05-24T08:09:48.057Z,10.27
2018-05-24T08:12:16.525Z,10.63
2018-05-24T08:14:43.539Z,13.10
2018-05-24T08:17:09.816Z,12.43
2018-05-24T08:19:36.830Z,10.87
2018-05-24T08:22:03.084Z,11.73
2018-05-24T08:24:31.871Z,11.00
2018-05-24T08:26:58.125Z,10.57
2018-05-24T08:29:24.393Z,10.00
2018-05-24T08:31:50.744Z,10.27
2018-05-24T08:34:17.727Z,10.03
2018-05-24T08:36:44.732Z,9.37
2018-05-24T08:39:12.963Z,8.83
2018-05-24T08:41:40.719Z,8.57
2018-05-24T08:44:06.941Z,8.87
2018-05-24T08:46:33.361Z,8.73
2018-05-24T08:48:59.612Z,8.93
2018-05-24T08:51:25.883Z,9.70
2018-05-24T08:53:52.147Z,10.13
2018-05-24T08:56:18.420Z,9.60
2018-05-24T08:58:45.407Z,12.33
2018-05-24T09:01:11.672Z,10.57
2018-05-24T09:03:37.900Z,10.20
2018-05-24T09:06:04.157Z,10.73
2018-05-24T09:08:30.418Z,11.50
2018-05-24T09:10:56.681Z,10.83
2018-05-24T09:13:23.248Z,11.70
2018-05-24T09:15:49.495Z,10.87
2018-05-24T09:18:15.761Z,11.27
2018-05-24T09:20:42.004Z,11.43
2018-05-24T09:23:08.249Z,11.10
2018-05-24T09:25:34.513Z,12.50
2018-05-24T09:28:00.776Z,12.30
2018-05-24T09:30:27.055Z,11.90
2018-05-24T09:32:53.317Z,11.37
2018-05-24T09:35:19.572Z,10.77
2018-05-24T09:37:45.847Z,12.43
2018-05-24T09:40:12.834Z,12.70
2018-05-24T09:42:39.111Z,11.07
2018-05-24T09:45:05.563Z,11.83
2018-05-24T09:47:31.824Z,14.13
2018-05-24T09:49:58.803Z,12.87
2018-05-24T09:52:25.067Z,10.70
2018-05-24T09:54:51.301Z,11.70
2018-05-24T09:57:17.552Z,15.57
2018-05-24T09:59:43.804Z,10.60
2018-05-24T10:02:10.043Z,10.37
2018-05-24T10:04:36.372Z,10.77
2018-05-24T10:07:03.315Z,9.70
2018-05-24T10:09:29.592Z,10.87
2018-05-24T10:11:55.832Z,11.03
2018-05-24T10:14:22.084Z,9.30
2018-05-24T10:16:48.324Z,10.10
2018-05-24T10:19:14.587Z,10.53
2018-05-24T10:21:40.845Z,9.03
2018-05-24T10:24:07.059Z,9.50
2018-05-24T10:26:34.058Z,9.70
2018-05-24T10:29:00.320Z,9.57
2018-05-24T10:31:26.573Z,10.37
2018-05-24T10:33:55.081Z,10.43
2018-05-24T10:36:21.352Z,10.47
2018-05-24T10:38:48.358Z,11.77
2018-05-24T10:41:14.680Z,10.77
2018-05-24T10:43:41.643Z,13.13
2018-05-24T10:46:07.896Z,11.80
2018-05-24T10:48:39.290Z,13.30
2018-05-24T10:51:05.570Z,12.47
2018-05-24T10:53:31.840Z,12.60
2018-05-24T10:55:58.145Z,12.20
2018-05-24T10:58:24.333Z,11.47
2018-05-24T11:00:50.581Z,12.13
2018-05-24T11:03:16.835Z,11.80
2018-05-24T11:05:45.993Z,12.17
2018-05-24T11:08:12.992Z,12.23
2018-05-24T11:10:39.260Z,13.80
2018-05-24T11:13:05.522Z,12.03
2018-05-24T11:15:31.823Z,12.33
2018-05-24T11:17:58.828Z,12.47
2018-05-24T11:20:25.089Z,11.53
2018-05-24T11:22:52.851Z,12.00
2018-05-24T11:25:19.134Z,12.33
2018-05-24T11:27:46.112Z,12.97
2018-05-24T11:30:12.367Z,12.30
2018-05-24T11:32:38.744Z,11.77
2018-05-24T11:35:04.993Z,12.97
2018-05-24T11:37:31.984Z,11.10
2018-05-24T11:39:59.417Z,10.40
2018-05-24T11:42:25.681Z,10.07
2018-05-24T11:44:51.927Z,8.67
2018-05-24T11:47:18.186Z,14.00
2018-05-24T11:49:45.155Z,6.60
2018-05-24T11:52:11.396Z,6.13
2018-05-24T11:54:37.660Z,4.43
2018-05-24T11:57:05.602Z,5.67
2018-05-24T11:59:31.839Z,3.53
2018-05-24T12:01:58.063Z,3.43
2018-05-24T12:04:25.081Z,3.83
2018-05-24T12:06:51.356Z,3.70
2018-05-24T12:09:17.679Z,4.33
2018-05-24T12:11:43.924Z,4.47
2018-05-24T12:14:12.102Z,4.33
2018-05-24T12:16:38.496Z,4.97
2018-05-24T12:19:05.496Z,6.00
2018-05-24T12:21:31.743Z,4.67
2018-05-24T12:23:57.988Z,5.77
2018-05-24T12:26:24.240Z,4.30
2018-05-24T12:28:50.475Z,5.70
2018-05-24T12:31:18.920Z,5.57
2018-05-24T12:33:45.940Z,5.77
2018-05-24T12:36:12.187Z,6.50
2018-05-24T12:38:38.604Z,6.00
2018-05-24T12:41:04.860Z,6.93
2018-05-24T12:43:31.116Z,6.70
2018-05-24T12:45:57.380Z,6.87
2018-05-24T12:48:26.856Z,7.40
2018-05-24T12:50:53.103Z,7.07
2018-05-24T12:53:20.977Z,5.70
2018-05-24T12:55:48.538Z,5.00
2018-05-24T12:58:14.812Z,5.20
2018-05-24T13:00:41.068Z,6.10
2018-05-24T13:03:07.354Z,6.87
2018-05-24T13:05:33.644Z,8.50
2018-05-24T13:07:59.928Z,9.43
2018-05-24T13:10:26.176Z,8.77
2018-05-24T13:12:53.167Z,9.73
2018-05-24T13:15:21.852Z,9.40
2018-05-24T13:17:48.113Z,10.20
2018-05-24T13:20:14.372Z,11.00
2018-05-24T13:22:40.603Z,10.03
2018-05-24T13:25:07.171Z,9.70
2018-05-24T13:27:33.407Z,9.27
2018-05-24T13:29:59.656Z,10.93
2018-05-24T13:32:30.154Z,9.90
2018-05-24T13:34:56.800Z,9.80
2018-05-24T13:37:23.175Z,9.23
2018-05-24T13:39:49.433Z,10.10
2018-05-24T13:42:15.689Z,10.10
2018-05-24T13:44:42.700Z,9.57
2018-05-24T13:47:08.972Z,9.80
2018-05-24T13:49:37.541Z,10.17
2018-05-24T13:52:03.810Z,9.90
2018-05-24T13:54:30.049Z,10.47
2018-05-24T13:56:56.293Z,9.80
2018-05-24T13:59:22.848Z,8.13
2018-05-24T14:01:49.118Z,9.80
2018-05-24T14:04:16.115Z,9.97
2018-05-24T14:06:42.368Z,10.00
2018-05-24T14:09:11.841Z,11.67
2018-05-24T14:11:38.068Z,12.60
2018-05-24T14:14:04.306Z,13.03
2018-05-24T14:16:30.548Z,12.37
2018-05-24T14:18:56.804Z,12.40
2018-05-24T14:21:23.111Z,13.30
2018-05-24T14:23:49.363Z,13.40
2018-05-24T14:26:15.715Z,14.20
2018-05-24T14:28:43.425Z,14.87
2018-05-24T14:31:09.656Z,14.03
2018-05-24T14:33:35.894Z,16.57
2018-05-24T14:36:02.912Z,16.13
2018-05-24T14:38:29.157Z,16.03
2018-05-24T14:40:55.424Z,15.90
2018-05-24T14:43:22.440Z,16.40
2018-05-24T14:45:48.765Z,16.23
2018-05-24T14:48:15.043Z,15.67
2018-05-24T14:50:41.298Z,15.30
2018-05-24T14:53:07.547Z,15.03
2018-05-24T14:55:33.783Z,16.50
2018-05-24T14:58:00.051Z,14.63
2018-05-24T15:00:27.047Z,17.57
2018-05-24T15:02:53.271Z,16.90
2018-05-24T15:05:19.545Z,16.83
2018-05-24T15:07:45.808Z,17.93
2018-05-24T15:10:12.046Z,16.03
2018-05-24T15:12:38.311Z,16.47
2018-05-24T15:15:04.556Z,18.03
2018-05-24T15:17:30.850Z,18.43
2018-05-24T15:19:57.139Z,16.80
2018-05-24T15:22:23.480Z,17.80
2018-05-24T15:24:49.759Z,16.90
2018-05-24T15:27:16.025Z,16.50
2018-05-24T15:29:42.272Z,16.93
2018-05-24T15:32:08.536Z,17.60
2018-05-24T15:34:34.775Z,18.17
2018-05-24T15:37:01.094Z,17.90
2018-05-24T15:39:27.347Z,19.00
2018-05-24T15:41:53.596Z,18.17
2018-05-24T15:44:19.876Z,18.00
2018-05-24T15:46:49.336Z,17.17
2018-05-24T15:49:15.599Z,17.20
2018-05-24T15:51:41.832Z,17.13
2018-05-24T15:54:08.093Z,17.03
2018-05-24T15:56:34.355Z,17.33
2018-05-24T15:59:00.579Z,17.53
2018-05-24T16:01:26.827Z,17.30
2018-05-24T16:03:53.084Z,16.53
2018-05-24T16:06:23.401Z,18.80
2018-05-24T16:08:49.624Z,18.23
2018-05-24T16:11:15.967Z,17.50
2018-05-24T16:13:42.225Z,18.33
2018-05-24T16:16:08.448Z,18.40
2018-05-24T16:18:34.760Z,16.97
2018-05-24T16:21:01.827Z,16.47
2018-05-24T16:23:30.223Z,17.00
2018-05-24T16:25:56.459Z,16.97
2018-05-24T16:28:23.599Z,14.90
2018-05-24T16:30:49.896Z,15.80
2018-05-24T16:33:16.160Z,16.43
2018-05-24T16:35:42.379Z,16.10
2018-05-24T16:38:08.643Z,15.60
2018-05-24T16:40:37.812Z,14.73
2018-05-24T16:43:04.800Z,16.07
2018-05-24T16:45:31.061Z,17.10
2018-05-24T16:47:57.344Z,16.33
2018-05-24T16:50:23.700Z,15.77
2018-05-24T16:52:50.728Z,16.00
2018-05-24T16:55:17.728Z,14.60
2018-05-24T16:57:48.640Z,14.93
2018-05-24T17:00:14.891Z,15.27
2018-05-24T17:02:41.224Z,15.13
2018-05-24T17:05:07.468Z,14.90
2018-05-24T17:07:33.833Z,14.87
2018-05-24T17:10:00.132Z,13.87
2018-05-24T17:12:26.383Z,12.53
2018-05-24T17:14:55.256Z,12.97
2018-05-24T17:17:21.504Z,13.47
2018-05-24T17:19:47.825Z,15.53
2018-05-24T17:22:14.117Z,14.67
2018-05-24T17:24:40.351Z,12.53
2018-05-24T17:27:06.585Z,13.43
2018-05-24T17:29:32.863Z,13.90
2018-05-24T17:31:59.111Z,13.90
2018-05-24T17:34:27.479Z,14.57
2018-05-24T17:36:53.699Z,15.10
2018-05-24T17:39:19.971Z,13.60
2018-05-24T17:41:46.200Z,13.97
2018-05-24T17:44:12.472Z,14.13
2018-05-24T17:46:38.699Z,14.70
2018-05-24T17:49:04.996Z,15.10
2018-05-24T17:51:34.687Z,14.50
2018-05-24T17:54:00.953Z,14.17
2018-05-24T17:56:27.956Z,14.23
2018-05-24T17:58:55.987Z,13.80
2018-05-24T18:01:22.292Z,13.87
2018-05-24T18:03:48.568Z,14.07
2018-05-24T18:06:14.852Z,15.63
2018-05-24T18:08:41.922Z,14.43
2018-05-24T18:11:10.413Z,15.63
2018-05-24T18:13:37.431Z,16.23
2018-05-24T18:16:03.874Z,15.40
2018-05-24T18:18:30.128Z,16.17
2018-05-24T18:20:56.420Z,16.17
2018-05-24T18:23:22.648Z,15.07
2018-05-24T18:25:49.635Z,15.27
2018-05-24T18:28:16.699Z,15.77
2018-05-24T18:30:46.108Z,16.37
2018-05-24T18:33:12.348Z,15.00
2018-05-24T18:35:38.612Z,13.90
2018-05-24T18:38:04.865Z,16.00
2018-05-24T18:40:31.124Z,15.83
2018-05-24T18:42:58.202Z,15.30
2018-05-24T18:45:24.368Z,15.90
2018-05-24T18:47:55.452Z,15.50
2018-05-24T18:50:21.903Z,15.93
2018-05-24T18:52:48.249Z,17.07
2018-05-24T18:55:14.524Z,16.00
2018-05-24T18:57:40.751Z,16.03
2018-05-24T19:00:07.035Z,17.60
2018-05-24T19:02:34.057Z,17.40
2018-05-24T19:05:05.057Z,16.27
2018-05-24T19:07:31.315Z,17.50
2018-05-24T19:09:57.624Z,15.20
2018-05-24T19:12:24.607Z,16.67
2018-05-24T19:14:50.872Z,16.50
2018-05-24T19:17:17.125Z,16.40
2018-05-24T19:19:44.111Z,16.47
2018-05-24T19:22:11.545Z,17.80
2018-05-24T19:24:37.830Z,17.63
2018-05-24T19:27:04.063Z,17.57
2018-05-24T19:29:30.342Z,17.73
2018-05-24T19:31:56.577Z,17.60
2018-05-24T19:34:23.709Z,16.77
2018-05-24T19:36:49.945Z,16.17
2018-05-24T19:39:19.881Z,18.33
2018-05-24T19:41:46.901Z,17.83
2018-05-24T19:44:13.185Z,19.77
2018-05-24T19:46:39.435Z,19.47
2018-05-24T19:49:05.683Z,18.67
2018-05-24T19:51:31.939Z,18.50
2018-05-24T19:53:58.191Z,19.10
2018-05-24T19:56:26.532Z,18.13
2018-05-24T19:58:52.755Z,17.97
2018-05-24T20:01:19.023Z,18.00
2018-05-24T20:03:45.291Z,20.27
2018-05-24T20:06:11.531Z,19.03
2018-05-24T20:08:37.793Z,22.53
2018-05-24T20:11:04.041Z,20.43
2018-05-24T20:13:31.092Z,20.33
2018-05-24T20:15:59.547Z,20.87
2018-05-24T20:18:25.787Z,21.90
2018-05-24T20:20:52.023Z,23.17
2018-05-24T20:23:18.290Z,23.20
2018-05-24T20:25:44.537Z,23.27
2018-05-24T20:28:10.801Z,22.97
2018-05-24T20:30:37.060Z,23.63
2018-05-24T20:33:03.308Z,22.03
2018-05-24T20:35:34.467Z,24.17
2018-05-24T20:38:00.751Z,23.57
2018-05-24T20:40:26.984Z,23.27
2018-05-24T20:42:53.247Z,22.63
2018-05-24T20:45:19.595Z,23.50
2018-05-24T20:47:45.833Z,22.77
2018-05-24T20:50:12.116Z,24.50
2018-05-24T20:52:38.368Z,22.67
2018-05-24T20:55:06.817Z,23.23
2018-05-24T20:57:33.056Z,23.63
2018-05-24T20:59:59.360Z,23.23
2018-05-24T21:02:25.624Z,22.37
2018-05-24T21:04:51.875Z,23.57
2018-05-24T21:07:18.149Z,24.57
2018-05-24T21:09:44.365Z,22.70
2018-05-24T21:12:13.157Z,22.77
2018-05-24T21:14:39.402Z,24.03
2018-05-24T21:17:05.719Z,23.97
2018-05-24T21:19:32.696Z,24.37
2018-05-24T21:21:59.854Z,25.67
2018-05-24T21:24:26.073Z,26.10
2018-05-24T21:26:58.076Z,26.33
2018-05-24T21:29:25.072Z,26.70
2018-05-24T21:31:51.340Z,29.07
2018-05-24T21:34:17.644Z,28.77
2018-05-24T21:36:43.904Z,27.67
2018-05-24T21:39:10.152Z,28.97
2018-05-24T21:41:36.404Z,25.80
2018-05-24T21:44:06.448Z,26.57
2018-05-24T21:46:32.683Z,29.07
2018-05-24T21:48:58.956Z,27.70
2018-05-24T21:51:25.947Z,27.50
2018-05-24T21:53:52.944Z,28.10
2018-05-24T21:56:19.196Z,25.67
2018-05-24T21:58:45.445Z,27.43
2018-05-24T22:01:16.611Z,26.30
2018-05-24T22:03:42.866Z,27.53
2018-05-24T22:06:09.875Z,27.60
2018-05-24T22:08:36.127Z,25.77
2018-05-24T22:11:02.416Z,28.13
2018-05-24T22:13:28.640Z,25.70
2018-05-24T22:15:57.514Z,26.53
2018-05-24T22:18:23.807Z,27.30
2018-05-24T22:20:50.800Z,28.47
2018-05-24T22:23:17.816Z,27.73
2018-05-24T22:25:44.820Z,28.20
2018-05-24T22:28:11.102Z,28.23
2018-05-24T22:30:37.347Z,29.20
2018-05-24T22:33:04.873Z,30.90
2018-05-24T22:35:33.707Z,29.67
2018-05-24T22:38:00.021Z,29.53
2018-05-24T22:40:26.997Z,30.50
2018-05-24T22:42:53.380Z,30.60
2018-05-24T22:45:23.051Z,31.80
2018-05-24T22:47:50.316Z,32.27
2018-05-24T22:50:17.365Z,32.90
2018-05-24T22:52:43.641Z,33.50
2018-05-24T22:55:09.895Z,31.77
2018-05-24T22:57:36.148Z,30.83
2018-05-24T23:00:02.413Z,31.43
2018-05-24T23:02:28.681Z,33.37
2018-05-24T23:04:54.981Z,36.07
2018-05-24T23:07:21.957Z,35.87
2018-05-24T23:09:48.335Z,35.87
2018-05-24T23:12:14.618Z,38.87
2018-05-24T23:14:40.868Z,38.53
2018-05-24T23:17:07.212Z,37.47
2018-05-24T23:19:33.551Z,38.63
2018-05-24T23:21:59.791Z,37.33
2018-05-24T23:24:26.031Z,36.70
2018-05-24T23:26:52.308Z,35.33
2018-05-24T23:29:19.366Z,39.67
2018-05-24T23:31:45.672Z,38.43
2018-05-24T23:34:11.956Z,39.30
2018-05-24T23:36:38.195Z,38.93
2018-05-24T23:39:05.211Z,36.90
2018-05-24T23:41:31.466Z,36.87
2018-05-24T23:43:58.489Z,37.17
2018-05-24T23:46:26.382Z,36.20
2018-05-24T23:48:52.633Z,34.93
2018-05-24T23:51:18.949Z,37.17
2018-05-24T23:53:45.952Z,38.13
2018-05-24T23:56:12.959Z,36.57
2018-05-24T23:58:39.204Z,34.27
